createdAt,value
2018-05-29T00:00:06.532Z,14.20
2018-05-29T00:01:06.517Z,15.70
2018-05-29T00:02:06.395Z,14.00
2018-05-29T00:03:06.384Z,13.00
2018-05-29T00:04:06.235Z,12.60
2018-05-29T00:05:06.197Z,13.30
2018-05-29T00:06:06.110Z,12.90
2018-05-29T00:07:06.100Z,14.20
2018-05-29T00:08:05.948Z,12.70
2018-05-29T00:09:05.928Z,13.80
2018-05-29T00:10:05.784Z,13.20
2018-05-29T00:11:05.845Z,13.30
2018-05-29T00:12:05.665Z,13.30
2018-05-29T00:13:05.636Z,12.90
2018-05-29T00:14:05.488Z,14.00
2018-05-29T00:16:47.752Z,12.90
2018-05-29T00:17:47.790Z,14.00
2018-05-29T00:18:47.597Z,12.80
2018-05-29T00:21:29.770Z,13.80
2018-05-29T00:22:29.853Z,14.40
2018-05-29T00:23:29.604Z,14.60
2018-05-29T00:24:29.563Z,14.40
2018-05-29T00:25:29.444Z,14.40
2018-05-29T00:26:29.482Z,13.40
2018-05-29T00:27:29.339Z,14.10
2018-05-29T00:28:29.279Z,14.30
2018-05-29T00:29:29.153Z,14.40
2018-05-29T00:30:29.191Z,15.20
2018-05-29T00:31:28.992Z,14.40
2018-05-29T00:34:11.273Z,14.00
2018-05-29T00:35:11.200Z,14.60
2018-05-29T00:36:11.100Z,14.80
2018-05-29T00:37:11.121Z,14.30
2018-05-29T00:38:10.970Z,14.40
2018-05-29T00:39:10.924Z,14.90
2018-05-29T00:40:10.793Z,14.20
2018-05-29T00:41:10.843Z,15.00
2018-05-29T00:42:10.646Z,15.60
2018-05-29T00:43:11.697Z,16.20
2018-05-29T00:44:10.521Z,15.30
2018-05-29T00:45:10.453Z,15.00
2018-05-29T00:46:10.355Z,14.80
2018-05-29T00:47:10.363Z,15.20
2018-05-29T00:48:10.224Z,15.30
2018-05-29T00:49:10.167Z,15.60
2018-05-29T00:50:10.045Z,16.70
2018-05-29T00:51:10.094Z,16.00
2018-05-29T00:52:09.908Z,15.70
2018-05-29T00:53:09.882Z,15.30
2018-05-29T00:54:09.784Z,16.00
2018-05-29T00:55:09.700Z,16.50
2018-05-29T00:56:09.597Z,16.00
2018-05-29T00:57:09.611Z,17.20
2018-05-29T00:58:09.452Z,17.30
2018-05-29T00:59:09.451Z,17.00
2018-05-29T01:00:09.284Z,17.90
2018-05-29T01:01:09.331Z,17.30
2018-05-29T01:02:09.145Z,16.70
2018-05-29T01:03:09.132Z,16.90
2018-05-29T01:04:09.004Z,16.60
2018-05-29T01:05:08.940Z,17.50
2018-05-29T01:06:08.857Z,17.10
2018-05-29T01:07:08.862Z,17.70
2018-05-29T01:08:08.682Z,16.90
2018-05-29T01:09:08.696Z,17.00
2018-05-29T01:10:08.543Z,17.80
2018-05-29T01:11:08.576Z,17.30
2018-05-29T01:12:08.387Z,17.50
2018-05-29T01:13:08.404Z,17.30
2018-05-29T01:14:08.260Z,17.70
2018-05-29T01:15:08.186Z,17.10
2018-05-29T01:16:08.081Z,17.40
2018-05-29T01:17:08.100Z,18.70
2018-05-29T01:18:07.921Z,17.40
2018-05-29T01:19:07.950Z,17.50
2018-05-29T01:20:07.781Z,17.00
2018-05-29T01:21:07.822Z,17.10
2018-05-29T01:22:07.626Z,16.20
2018-05-29T01:23:07.626Z,16.30
2018-05-29T01:24:07.473Z,16.30
2018-05-29T01:25:08.492Z,17.20
2018-05-29T01:26:07.345Z,17.30
2018-05-29T01:27:07.353Z,16.90
2018-05-29T01:28:07.164Z,17.00
2018-05-29T01:29:07.164Z,17.10
2018-05-29T01:30:07.047Z,17.70
2018-05-29T01:31:07.077Z,18.10
2018-05-29T01:32:06.870Z,18.70
2018-05-29T01:33:06.877Z,17.10
2018-05-29T01:34:06.748Z,17.20
2018-05-29T01:35:06.733Z,17.60
2018-05-29T01:36:06.575Z,18.80
2018-05-29T01:38:48.766Z,18.40
2018-05-29T01:39:49.770Z,18.30
2018-05-29T01:40:48.622Z,18.30
2018-05-29T01:41:48.613Z,18.80
2018-05-29T01:42:48.472Z,18.40
2018-05-29T01:43:48.525Z,17.80
2018-05-29T01:44:48.342Z,17.40
2018-05-29T01:47:30.779Z,16.90
2018-05-29T01:50:12.818Z,17.30
2018-05-29T01:51:12.765Z,18.00
2018-05-29T01:52:12.615Z,17.10
2018-05-29T02:19:54.413Z,16.40
2018-05-29T02:20:54.200Z,18.20
2018-05-29T02:21:54.223Z,17.70
2018-05-29T02:22:54.063Z,17.90
2018-05-29T02:23:54.119Z,17.20
2018-05-29T02:24:53.903Z,18.40
2018-05-29T02:25:53.927Z,18.40
2018-05-29T02:26:53.762Z,18.50
2018-05-29T02:27:53.758Z,18.00
2018-05-29T02:28:53.610Z,18.60
2018-05-29T02:29:53.638Z,18.40
2018-05-29T02:30:53.452Z,18.60
2018-05-29T02:31:53.487Z,17.90
2018-05-29T02:32:53.297Z,18.00
2018-05-29T02:35:35.296Z,17.90
2018-05-29T02:36:35.258Z,17.90
2018-05-29T02:37:35.163Z,18.40
2018-05-29T02:38:35.158Z,18.50
2018-05-29T02:39:34.983Z,18.80
2018-05-29T02:42:17.328Z,18.50
2018-05-29T02:43:17.276Z,18.40
2018-05-29T02:44:17.183Z,18.50
2018-05-29T02:46:59.305Z,18.70
2018-05-29T02:47:59.325Z,18.80
2018-05-29T02:48:59.141Z,19.80
2018-05-29T02:49:59.093Z,18.50
2018-05-29T02:50:58.997Z,19.30
2018-05-29T02:51:59.011Z,20.20
2018-05-29T02:52:58.861Z,20.10
2018-05-29T02:53:58.816Z,19.40
2018-05-29T02:54:58.682Z,19.50
2018-05-29T02:55:58.723Z,21.20
2018-05-29T02:56:58.540Z,20.00
2018-05-29T02:57:58.535Z,20.40
2018-05-29T02:58:58.406Z,20.00
2018-05-29T03:01:40.299Z,19.40
2018-05-29T03:02:40.344Z,20.30
2018-05-29T03:03:40.141Z,19.60
2018-05-29T03:04:40.175Z,19.70
2018-05-29T03:05:40.005Z,19.70
2018-05-29T03:08:22.295Z,20.10
2018-05-29T03:09:22.300Z,18.40
2018-05-29T03:10:22.148Z,18.80
2018-05-29T03:11:22.164Z,21.00
2018-05-29T03:12:21.994Z,21.00
2018-05-29T03:13:21.979Z,20.30
2018-05-29T03:14:21.860Z,20.40
2018-05-29T03:15:21.890Z,20.90
2018-05-29T03:16:21.687Z,21.30
2018-05-29T03:17:21.698Z,20.50
2018-05-29T03:18:21.536Z,21.10
2018-05-29T03:19:21.554Z,21.20
2018-05-29T03:20:21.380Z,20.80
2018-05-29T03:21:21.413Z,20.90
2018-05-29T03:22:21.240Z,20.00
2018-05-29T03:23:21.225Z,20.70
2018-05-29T03:24:21.073Z,22.20
2018-05-29T03:25:21.063Z,22.10
2018-05-29T03:26:20.928Z,21.50
2018-05-29T03:27:20.952Z,22.10
2018-05-29T03:28:20.770Z,21.20
2018-05-29T03:31:02.819Z,20.10
2018-05-29T03:32:02.852Z,19.60
2018-05-29T03:33:02.655Z,19.80
2018-05-29T03:34:02.662Z,20.70
2018-05-29T03:35:02.495Z,20.50
2018-05-29T03:36:03.532Z,20.10
2018-05-29T03:37:02.359Z,20.50
2018-05-29T03:39:44.306Z,20.60
2018-05-29T03:40:46.078Z,20.50
2018-05-29T03:41:44.151Z,20.50
2018-05-29T03:42:44.189Z,20.80
2018-05-29T03:43:44.023Z,20.20
2018-05-29T03:44:43.992Z,20.30
2018-05-29T03:45:43.860Z,20.20
2018-05-29T03:46:43.837Z,21.20
2018-05-29T03:47:43.710Z,19.80
2018-05-29T03:48:43.728Z,19.50
2018-05-29T03:49:43.542Z,19.70
2018-05-29T03:50:44.598Z,19.80
2018-05-29T03:51:43.413Z,19.80
2018-05-29T03:52:43.441Z,20.20
2018-05-29T03:53:43.247Z,20.40
2018-05-29T03:54:43.247Z,20.60
2018-05-29T03:55:43.090Z,20.20
2018-05-29T03:56:43.092Z,19.20
2018-05-29T03:57:42.919Z,19.40
2018-05-29T03:58:42.977Z,19.70
2018-05-29T03:59:42.775Z,19.50
2018-05-29T04:02:24.827Z,19.60
2018-05-29T04:03:24.774Z,18.90
2018-05-29T04:04:24.663Z,18.70
2018-05-29T04:05:24.683Z,18.90
2018-05-29T04:06:24.510Z,18.50
2018-05-29T04:07:24.523Z,18.80
2018-05-29T04:08:24.347Z,18.20
2018-05-29T04:09:24.462Z,17.70
2018-05-29T04:10:24.194Z,18.00
2018-05-29T04:11:24.222Z,17.70
2018-05-29T04:12:24.069Z,18.10
2018-05-29T04:13:24.017Z,17.40
2018-05-29T04:14:23.893Z,18.50
2018-05-29T04:15:23.933Z,18.60
2018-05-29T04:16:23.744Z,17.80
2018-05-29T04:17:23.783Z,17.50
2018-05-29T04:18:23.610Z,18.70
2018-05-29T04:19:23.545Z,19.10
2018-05-29T04:20:23.444Z,19.00
2018-05-29T04:30:46.688Z,18.30
2018-05-29T04:31:46.495Z,19.20
2018-05-29T04:32:46.495Z,18.10
2018-05-29T04:33:46.370Z,18.60
2018-05-29T04:34:46.380Z,18.00
2018-05-29T04:35:46.853Z,19.70
2018-05-29T04:36:46.182Z,19.30
2018-05-29T04:37:46.036Z,19.40
2018-05-29T04:38:46.028Z,20.20
2018-05-29T04:39:45.889Z,19.40
2018-05-29T04:40:45.906Z,19.10
2018-05-29T04:41:45.735Z,20.70
2018-05-29T04:44:27.867Z,20.70
2018-05-29T04:45:27.823Z,21.10
2018-05-29T04:46:27.679Z,20.50
2018-05-29T04:47:27.737Z,19.80
2018-05-29T04:48:27.545Z,20.40
2018-05-29T04:49:27.527Z,20.70
2018-05-29T04:50:27.369Z,21.10
2018-05-29T04:53:09.334Z,21.00
2018-05-29T04:54:09.594Z,19.90
2018-05-29T04:55:09.185Z,22.10
2018-05-29T04:56:09.160Z,21.30
2018-05-29T04:57:09.042Z,22.70
2018-05-29T04:58:09.050Z,22.70
2018-05-29T04:59:08.895Z,21.50
2018-05-29T05:00:08.903Z,20.70
2018-05-29T05:01:08.721Z,20.20
2018-05-29T05:02:08.682Z,21.10
2018-05-29T05:03:08.574Z,21.00
2018-05-29T05:04:12.089Z,20.70
2018-05-29T05:05:08.412Z,20.30
2018-05-29T05:06:08.438Z,21.00
2018-05-29T05:07:08.262Z,21.00
2018-05-29T05:08:08.293Z,19.40
2018-05-29T05:09:08.117Z,20.70
2018-05-29T05:10:08.149Z,20.60
2018-05-29T05:11:07.966Z,21.20
2018-05-29T05:12:07.931Z,21.90
2018-05-29T05:13:07.820Z,21.20
2018-05-29T05:14:07.828Z,21.20
2018-05-29T05:15:07.723Z,22.30
2018-05-29T05:16:07.640Z,20.40
2018-05-29T05:17:07.501Z,20.40
2018-05-29T05:18:07.554Z,21.50
2018-05-29T05:19:07.348Z,20.80
2018-05-29T05:20:07.427Z,19.60
2018-05-29T05:21:07.244Z,19.50
2018-05-29T05:22:07.170Z,19.60
2018-05-29T05:23:07.086Z,20.10
2018-05-29T05:24:06.979Z,19.40
2018-05-29T05:25:06.940Z,17.50
2018-05-29T05:26:06.888Z,17.90
2018-05-29T05:27:06.757Z,19.50
2018-05-29T05:28:06.749Z,18.80
2018-05-29T05:29:06.594Z,18.40
2018-05-29T05:30:06.791Z,17.90
2018-05-29T05:31:06.459Z,18.70
2018-05-29T05:32:06.407Z,19.40
2018-05-29T05:33:06.301Z,19.40
2018-05-29T05:34:06.229Z,18.00
2018-05-29T05:35:06.166Z,18.40
2018-05-29T05:36:06.115Z,18.50
2018-05-29T05:37:06.004Z,18.10
2018-05-29T05:38:06.043Z,17.80
2018-05-29T05:39:05.837Z,17.60
2018-05-29T05:40:05.776Z,16.70
2018-05-29T05:41:08.981Z,17.60
2018-05-29T05:42:05.671Z,16.90
2018-05-29T05:43:05.536Z,17.80
2018-05-29T05:44:05.570Z,17.40
2018-05-29T05:45:05.388Z,17.00
2018-05-29T05:46:05.460Z,16.80
2018-05-29T05:47:05.242Z,16.50
2018-05-29T05:48:05.288Z,17.10
2018-05-29T05:49:05.095Z,17.20
2018-05-29T05:50:05.105Z,16.80
2018-05-29T05:51:04.964Z,17.10
2018-05-29T05:52:04.905Z,16.80
2018-05-29T05:53:04.784Z,16.50
2018-05-29T05:54:04.826Z,23.30
2018-05-29T05:55:04.648Z,54.50
2018-05-29T05:56:04.626Z,33.20
2018-05-29T05:57:04.514Z,17.30
2018-05-29T05:58:04.549Z,17.00
2018-05-29T05:59:04.338Z,18.00
2018-05-29T06:00:04.351Z,18.10
2018-05-29T06:01:04.211Z,18.10
2018-05-29T06:02:04.172Z,17.80
2018-05-29T06:03:04.081Z,18.30
2018-05-29T06:04:04.081Z,17.60
2018-05-29T06:05:03.880Z,17.70
2018-05-29T06:06:03.900Z,17.80
2018-05-29T06:07:03.733Z,17.10
2018-05-29T06:08:03.791Z,17.10
2018-05-29T06:09:03.589Z,17.10
2018-05-29T06:10:03.590Z,17.60
2018-05-29T06:11:03.446Z,17.40
2018-05-29T06:12:03.427Z,19.20
2018-05-29T06:13:03.281Z,17.00
2018-05-29T06:14:03.314Z,18.70
2018-05-29T06:15:03.127Z,18.00
2018-05-29T06:16:03.114Z,16.50
2018-05-29T06:17:03.009Z,17.50
2018-05-29T06:18:03.034Z,17.10
2018-05-29T06:19:02.824Z,17.00
2018-05-29T06:20:02.835Z,19.80
2018-05-29T06:21:02.676Z,18.30
2018-05-29T06:22:02.689Z,16.80
2018-05-29T06:23:02.535Z,19.30
2018-05-29T06:25:44.370Z,19.80
2018-05-29T06:26:44.348Z,14.90
2018-05-29T06:27:44.237Z,14.50
2018-05-29T06:28:44.267Z,15.10
2018-05-29T06:29:44.058Z,14.10
2018-05-29T06:30:44.083Z,14.80
2018-05-29T06:31:43.920Z,15.30
2018-05-29T06:32:43.959Z,17.40
2018-05-29T06:33:43.774Z,18.40
2018-05-29T06:34:43.797Z,28.20
2018-05-29T06:35:43.635Z,34.00
2018-05-29T06:36:43.594Z,21.30
2018-05-29T06:40:30.892Z,14.60
2018-05-29T06:41:30.836Z,11.40
2018-05-29T06:42:30.749Z,11.20
2018-05-29T06:45:12.901Z,10.60
2018-05-29T06:46:12.836Z,12.80
2018-05-29T06:47:12.737Z,9.60
2018-05-29T06:48:13.704Z,11.10
2018-05-29T06:49:12.604Z,9.10
2018-05-29T06:50:12.561Z,9.30
2018-05-29T06:51:12.465Z,9.20
2018-05-29T06:52:12.475Z,10.80
2018-05-29T06:53:12.344Z,10.40
2018-05-29T06:54:13.326Z,10.10
2018-05-29T06:55:12.183Z,9.20
2018-05-29T06:56:12.185Z,8.70
2018-05-29T06:57:12.041Z,8.90
2018-05-29T06:58:12.015Z,9.00
2018-05-29T06:59:11.935Z,9.30
2018-05-29T07:00:11.907Z,10.90
2018-05-29T07:01:11.772Z,9.10
2018-05-29T07:03:53.984Z,9.90
2018-05-29T07:06:36.386Z,8.30
2018-05-29T07:07:36.437Z,11.20
2018-05-29T07:08:36.245Z,9.80
2018-05-29T07:09:36.286Z,8.10
2018-05-29T07:10:36.101Z,9.00
2018-05-29T07:11:36.168Z,8.20
2018-05-29T07:12:35.981Z,8.40
2018-05-29T07:13:35.988Z,11.90
2018-05-29T07:14:35.912Z,8.60
2018-05-29T07:15:35.883Z,8.40
2018-05-29T07:16:35.717Z,9.10
2018-05-29T07:17:35.682Z,7.90
2018-05-29T07:18:35.584Z,11.60
2018-05-29T07:19:35.627Z,7.90
2018-05-29T07:20:35.441Z,8.30
2018-05-29T07:21:35.506Z,9.20
2018-05-29T07:22:35.316Z,9.50
2018-05-29T07:23:35.311Z,7.60
2018-05-29T07:24:38.534Z,8.30
2018-05-29T07:25:35.222Z,7.60
2018-05-29T07:26:35.059Z,7.80
2018-05-29T07:27:35.034Z,7.30
2018-05-29T07:28:34.941Z,9.00
2018-05-29T07:29:36.020Z,7.80
2018-05-29T07:30:34.819Z,7.50
2018-05-29T07:33:16.892Z,8.00
2018-05-29T07:34:16.949Z,7.50
2018-05-29T07:35:16.785Z,8.50
2018-05-29T07:36:16.754Z,8.10
2018-05-29T07:37:16.631Z,7.60
2018-05-29T07:38:16.673Z,7.90
2018-05-29T07:39:16.544Z,8.20
2018-05-29T07:40:17.540Z,8.00
2018-05-29T07:41:16.370Z,8.00
2018-05-29T07:42:16.390Z,8.00
2018-05-29T07:43:16.234Z,8.40
2018-05-29T07:45:58.445Z,8.60
2018-05-29T07:47:19.318Z,8.40
2018-05-29T07:49:40.418Z,9.00
2018-05-29T07:50:40.412Z,8.40
2018-05-29T07:51:40.260Z,8.20
2018-05-29T07:52:40.350Z,8.50
2018-05-29T07:53:40.140Z,8.20
2018-05-29T07:54:40.130Z,11.90
2018-05-29T07:55:40.021Z,9.10
2018-05-29T07:56:40.034Z,9.60
2018-05-29T07:57:39.881Z,8.70
2018-05-29T07:58:39.835Z,9.40
2018-05-29T07:59:39.744Z,8.80
2018-05-29T08:00:40.804Z,8.30
2018-05-29T08:01:39.619Z,8.70
2018-05-29T08:02:39.656Z,8.40
2018-05-29T08:03:39.487Z,8.20
2018-05-29T08:04:39.469Z,8.80
2018-05-29T08:05:39.381Z,8.30
2018-05-29T08:06:39.376Z,8.70
2018-05-29T08:07:39.227Z,8.10
2018-05-29T08:08:39.204Z,9.10
2018-05-29T08:09:39.089Z,7.80
2018-05-29T08:10:39.198Z,8.10
2018-05-29T08:11:42.059Z,8.80
2018-05-29T08:12:39.009Z,8.50
2018-05-29T08:13:38.840Z,8.50
2018-05-29T08:14:38.816Z,8.60
2018-05-29T08:15:38.725Z,10.30
2018-05-29T08:16:38.757Z,10.10
2018-05-29T08:17:38.573Z,8.40
2018-05-29T08:20:20.429Z,8.60
2018-05-29T08:21:21.380Z,9.20
2018-05-29T08:22:20.275Z,8.30
2018-05-29T08:23:20.217Z,8.60
2018-05-29T08:24:20.156Z,8.90
2018-05-29T08:25:20.142Z,8.20
2018-05-29T08:26:20.023Z,10.40
2018-05-29T08:27:21.125Z,8.00
2018-05-29T08:28:19.887Z,8.40
2018-05-29T08:29:19.873Z,8.60
2018-05-29T08:30:19.764Z,8.90
2018-05-29T08:31:19.776Z,8.50
2018-05-29T08:32:19.658Z,11.10
2018-05-29T08:33:19.609Z,8.70
2018-05-29T08:34:19.500Z,9.00
2018-05-29T08:35:19.503Z,8.80
2018-05-29T08:36:19.377Z,8.50
2018-05-29T08:37:20.383Z,9.20
2018-05-29T08:38:19.239Z,8.60
2018-05-29T08:39:19.261Z,8.40
2018-05-29T08:40:19.134Z,8.70
2018-05-29T08:43:01.436Z,8.30
2018-05-29T08:45:43.422Z,8.60
2018-05-29T08:46:43.464Z,10.00
2018-05-29T08:47:43.293Z,9.80
2018-05-29T08:48:43.343Z,8.70
2018-05-29T08:49:43.168Z,8.70
2018-05-29T08:50:43.158Z,9.10
2018-05-29T08:51:43.047Z,9.20
2018-05-29T08:52:43.107Z,10.00
2018-05-29T08:53:42.933Z,8.80
2018-05-29T08:54:42.983Z,8.70
2018-05-29T08:55:42.798Z,8.80
2018-05-29T08:56:42.795Z,8.80
2018-05-29T08:57:44.893Z,8.80
2018-05-29T09:00:24.922Z,8.40
2018-05-29T09:01:24.894Z,8.10
2018-05-29T09:02:24.829Z,10.50
2018-05-29T09:03:24.733Z,8.20
2018-05-29T09:04:24.681Z,8.30
2018-05-29T09:05:24.718Z,8.20
2018-05-29T09:06:24.556Z,11.80
2018-05-29T09:07:24.625Z,7.90
2018-05-29T09:08:24.478Z,11.90
2018-05-29T09:09:24.437Z,8.60
2018-05-29T09:10:24.308Z,9.60
2018-05-29T09:11:24.354Z,13.00
2018-05-29T09:12:24.194Z,9.70
2018-05-29T09:13:24.189Z,10.70
2018-05-29T09:14:24.084Z,9.60
2018-05-29T09:15:24.068Z,15.20
2018-05-29T09:16:23.944Z,8.90
2018-05-29T09:17:23.976Z,7.80
2018-05-29T09:18:23.828Z,8.60
2018-05-29T09:19:23.839Z,8.00
2018-05-29T09:20:23.706Z,8.30
2018-05-29T09:21:23.710Z,8.80
2018-05-29T09:22:23.591Z,8.50
2018-05-29T09:23:26.614Z,8.70
2018-05-29T09:24:23.475Z,8.30
2018-05-29T09:25:23.536Z,10.00
2018-05-29T09:26:23.346Z,9.00
2018-05-29T09:27:23.326Z,10.40
2018-05-29T09:28:23.225Z,9.90
2018-05-29T09:29:23.282Z,10.50
2018-05-29T09:30:23.108Z,8.80
2018-05-29T09:31:23.142Z,8.60
2018-05-29T09:32:22.991Z,9.20
2018-05-29T09:33:23.024Z,8.50
2018-05-29T09:34:22.879Z,9.60
2018-05-29T09:35:22.899Z,8.90
2018-05-29T09:36:22.748Z,11.10
2018-05-29T09:37:22.807Z,8.20
2018-05-29T09:38:22.609Z,8.30
2018-05-29T09:39:22.584Z,8.60
2018-05-29T09:40:22.529Z,8.60
2018-05-29T09:41:22.447Z,7.60
2018-05-29T09:42:22.372Z,8.10
2018-05-29T09:43:22.341Z,8.80
2018-05-29T09:44:22.290Z,9.00
2018-05-29T09:45:22.197Z,10.60
2018-05-29T09:46:22.136Z,10.40
2018-05-29T09:47:22.113Z,13.50
2018-05-29T09:48:22.045Z,9.50
2018-05-29T09:49:21.980Z,10.30
2018-05-29T09:50:21.894Z,9.00
2018-05-29T09:51:21.849Z,8.90
2018-05-29T09:52:21.778Z,8.70
2018-05-29T09:53:21.713Z,9.00
2018-05-29T09:54:21.646Z,8.80
2018-05-29T09:55:21.613Z,8.80
2018-05-29T09:56:21.527Z,9.40
2018-05-29T09:59:03.437Z,8.80
2018-05-29T10:00:03.420Z,8.80
2018-05-29T10:01:03.319Z,9.40
2018-05-29T10:02:03.261Z,9.00
2018-05-29T10:03:03.219Z,10.70
2018-05-29T10:04:03.139Z,8.70
2018-05-29T10:05:03.092Z,9.30
2018-05-29T10:06:03.027Z,8.70
2018-05-29T10:07:02.979Z,10.50
2018-05-29T10:08:02.902Z,9.20
2018-05-29T10:09:02.839Z,9.50
2018-05-29T10:10:03.548Z,9.40
2018-05-29T10:11:02.721Z,9.20
2018-05-29T10:13:44.956Z,9.30
2018-05-29T10:15:05.927Z,9.10
2018-05-29T10:15:44.842Z,8.50
2018-05-29T10:16:44.779Z,9.30
2018-05-29T10:20:08.977Z,9.00
2018-05-29T10:22:50.968Z,9.10
2018-05-29T10:23:50.930Z,9.70
2018-05-29T10:24:50.844Z,9.30
2018-05-29T10:28:25.695Z,9.20
2018-05-29T10:29:25.506Z,9.10
2018-05-29T10:30:25.482Z,9.30
2018-05-29T10:31:25.399Z,9.70
2018-05-29T10:32:25.395Z,9.10
2018-05-29T10:33:25.259Z,9.50
2018-05-29T10:36:07.526Z,9.30
2018-05-29T10:39:00.960Z,10.00
2018-05-29T10:40:00.974Z,9.50
2018-05-29T10:41:00.887Z,10.20
2018-05-29T10:42:00.886Z,9.80
2018-05-29T10:43:00.715Z,10.00
2018-05-29T10:44:00.689Z,10.40
2018-05-29T10:45:00.599Z,9.30
2018-05-29T10:46:00.662Z,9.20
2018-05-29T10:47:00.496Z,11.00
2018-05-29T10:48:00.520Z,10.40
2018-05-29T10:49:00.394Z,10.50
2018-05-29T10:50:00.296Z,11.40
2018-05-29T10:51:00.232Z,10.00
2018-05-29T10:52:05.622Z,9.80
2018-05-29T10:53:00.159Z,11.30
2018-05-29T10:54:00.139Z,10.60
2018-05-29T10:55:00.004Z,11.30
2018-05-29T10:56:00.066Z,11.00
2018-05-29T10:56:59.930Z,10.50
2018-05-29T10:57:59.864Z,11.60
2018-05-29T10:58:59.766Z,10.80
2018-05-29T10:59:59.932Z,10.10
2018-05-29T11:00:59.642Z,9.90
2018-05-29T11:01:59.703Z,11.20
2018-05-29T11:02:59.536Z,10.00
2018-05-29T11:03:59.495Z,9.80
2018-05-29T11:04:59.396Z,9.60
2018-05-29T11:05:59.407Z,10.50
2018-05-29T11:06:59.275Z,10.00
2018-05-29T11:07:59.266Z,9.60
2018-05-29T11:08:59.149Z,10.60
2018-05-29T11:09:59.150Z,9.90
2018-05-29T11:10:59.026Z,10.20
2018-05-29T11:11:59.062Z,9.90
2018-05-29T11:12:58.934Z,10.50
2018-05-29T11:15:40.968Z,10.00
2018-05-29T11:16:40.950Z,10.30
2018-05-29T11:17:40.869Z,11.00
2018-05-29T11:18:40.869Z,11.80
2018-05-29T11:19:40.733Z,10.40
2018-05-29T11:20:40.766Z,10.10
2018-05-29T11:21:40.593Z,10.10
2018-05-29T11:22:40.574Z,10.70
2018-05-29T11:23:40.496Z,10.20
2018-05-29T11:24:40.525Z,11.30
2018-05-29T11:25:40.372Z,10.90
2018-05-29T11:28:22.482Z,10.20
2018-05-29T11:29:38.483Z,10.10
2018-05-29T11:30:22.353Z,9.90
2018-05-29T11:31:22.425Z,9.60
2018-05-29T11:32:22.261Z,10.00
2018-05-29T11:33:22.266Z,11.00
2018-05-29T11:34:22.092Z,10.50
2018-05-29T11:35:22.144Z,11.10
2018-05-29T11:36:21.981Z,10.50
2018-05-29T11:37:21.928Z,10.90
2018-05-29T11:38:21.877Z,10.20
2018-05-29T11:39:21.873Z,10.40
2018-05-29T11:40:21.721Z,11.00
2018-05-29T11:41:21.758Z,10.10
2018-05-29T11:42:21.615Z,11.30
2018-05-29T11:43:21.562Z,10.60
2018-05-29T11:44:21.545Z,10.60
2018-05-29T11:45:21.480Z,11.10
2018-05-29T11:46:21.344Z,11.20
2018-05-29T11:47:21.395Z,10.50
2018-05-29T11:48:21.228Z,11.10
2018-05-29T11:49:21.171Z,11.20
2018-05-29T11:50:21.153Z,11.40
2018-05-29T11:51:21.040Z,10.60
2018-05-29T11:52:20.951Z,10.80
2018-05-29T11:53:20.903Z,11.10
2018-05-29T11:54:20.845Z,12.30
2018-05-29T11:55:20.792Z,11.40
2018-05-29T11:56:20.774Z,11.50
2018-05-29T11:57:20.679Z,11.90
2018-05-29T11:58:20.589Z,10.80
2018-05-29T11:59:20.534Z,11.30
2018-05-29T12:00:20.486Z,10.70
2018-05-29T12:03:02.483Z,12.00
2018-05-29T12:04:02.420Z,13.40
2018-05-29T12:05:02.397Z,12.30
2018-05-29T12:06:02.320Z,12.30
2018-05-29T12:07:02.228Z,11.60
2018-05-29T12:09:44.493Z,11.90
2018-05-29T12:10:44.441Z,10.80
2018-05-29T12:11:44.347Z,11.70
2018-05-29T12:12:44.297Z,11.30
2018-05-29T12:13:44.231Z,11.20
2018-05-29T12:14:44.182Z,11.40
2018-05-29T12:15:44.121Z,11.70
2018-05-29T12:16:44.047Z,11.20
2018-05-29T12:17:43.968Z,13.60
2018-05-29T12:18:43.917Z,11.40
2018-05-29T12:19:43.833Z,11.30
2018-05-29T12:20:43.824Z,11.50
2018-05-29T12:21:43.710Z,11.10
2018-05-29T12:22:43.698Z,10.50
2018-05-29T12:23:43.573Z,11.60
2018-05-29T12:24:43.511Z,11.80
2018-05-29T12:25:43.463Z,11.50
2018-05-29T12:26:43.401Z,11.40
2018-05-29T12:27:43.305Z,11.90
2018-05-29T12:28:43.345Z,11.40
2018-05-29T12:29:43.186Z,11.00
2018-05-29T12:30:43.114Z,11.80
2018-05-29T12:31:43.201Z,12.50
2018-05-29T12:32:43.019Z,12.40
2018-05-29T12:33:42.913Z,12.30
2018-05-29T12:34:42.850Z,11.80
2018-05-29T12:35:42.793Z,11.60
2018-05-29T12:36:42.735Z,11.30
2018-05-29T12:37:42.651Z,11.00
2018-05-29T12:38:42.591Z,11.50
2018-05-29T12:39:42.588Z,10.80
2018-05-29T12:40:42.459Z,11.30
2018-05-29T12:41:43.101Z,12.50
2018-05-29T12:42:42.357Z,13.80
2018-05-29T12:43:42.237Z,22.90
2018-05-29T12:44:42.183Z,16.00
2018-05-29T12:45:42.108Z,22.70
2018-05-29T12:48:24.023Z,18.40
2018-05-29T12:49:23.939Z,12.30
2018-05-29T12:50:23.869Z,12.70
2018-05-29T12:51:23.815Z,11.70
2018-05-29T12:52:23.735Z,12.20
2018-05-29T12:53:23.680Z,11.50
2018-05-29T12:54:23.592Z,12.10
2018-05-29T12:55:23.526Z,11.60
2018-05-29T12:56:23.478Z,12.10
2018-05-29T12:57:23.417Z,12.30
2018-05-29T12:58:23.362Z,11.60
2018-05-29T12:59:23.265Z,11.90
2018-05-29T13:00:23.189Z,11.40
2018-05-29T13:01:23.144Z,11.80
2018-05-29T13:02:23.061Z,12.10
2018-05-29T13:03:23.008Z,12.10
2018-05-29T13:04:22.928Z,11.90
2018-05-29T13:05:22.931Z,11.20
2018-05-29T13:06:22.788Z,11.60
2018-05-29T13:07:22.728Z,11.70
2018-05-29T13:08:22.673Z,11.80
2018-05-29T13:09:22.623Z,11.90
2018-05-29T13:10:22.517Z,12.30
2018-05-29T13:11:22.446Z,11.90
2018-05-29T13:12:22.394Z,11.90
2018-05-29T13:13:22.318Z,12.00
2018-05-29T13:14:22.285Z,11.90
2018-05-29T13:15:22.177Z,12.60
2018-05-29T13:16:22.110Z,11.90
2018-05-29T13:17:22.047Z,11.70
2018-05-29T13:18:21.972Z,11.90
2018-05-29T13:19:21.933Z,12.50
2018-05-29T13:20:21.837Z,12.40
2018-05-29T13:21:21.817Z,12.50
2018-05-29T13:22:21.704Z,12.50
2018-05-29T13:23:21.642Z,11.80
2018-05-29T13:24:21.598Z,12.90
2018-05-29T13:25:21.634Z,12.60
2018-05-29T13:26:21.443Z,116.80
2018-05-29T13:27:21.480Z,229.70
2018-05-29T13:28:21.349Z,315.70
2018-05-29T13:29:21.390Z,142.70
2018-05-29T13:30:21.162Z,74.10
2018-05-29T13:31:21.148Z,27.10
2018-05-29T13:32:21.035Z,19.20
2018-05-29T13:35:03.056Z,14.20
2018-05-29T13:36:03.056Z,12.40
2018-05-29T13:37:02.877Z,12.20
2018-05-29T13:38:02.868Z,11.70
2018-05-29T13:39:02.742Z,13.90
2018-05-29T13:40:02.817Z,12.30
2018-05-29T13:41:02.607Z,11.90
2018-05-29T13:42:02.580Z,12.50
2018-05-29T13:43:02.490Z,15.70
2018-05-29T13:44:02.498Z,14.00
2018-05-29T13:45:02.365Z,12.20
2018-05-29T13:46:02.315Z,12.20
2018-05-29T13:47:02.274Z,13.80
2018-05-29T13:48:02.228Z,12.40
2018-05-29T13:49:02.099Z,13.30
2018-05-29T13:50:02.036Z,15.70
2018-05-29T13:51:01.999Z,12.60
2018-05-29T13:52:01.946Z,14.50
2018-05-29T13:53:01.811Z,13.90
2018-05-29T13:54:01.852Z,14.00
2018-05-29T13:55:01.655Z,12.60
2018-05-29T13:56:01.705Z,12.40
2018-05-29T13:57:01.519Z,14.10
2018-05-29T13:58:01.570Z,12.80
2018-05-29T13:59:01.485Z,12.60
2018-05-29T14:00:01.388Z,12.90
2018-05-29T14:01:01.290Z,14.10
2018-05-29T14:02:01.287Z,12.60
2018-05-29T14:03:01.110Z,13.10
2018-05-29T14:04:01.094Z,14.60
2018-05-29T14:05:00.977Z,13.10
2018-05-29T14:06:01.056Z,14.20
2018-05-29T14:07:00.894Z,13.00
2018-05-29T14:08:00.809Z,13.40
2018-05-29T14:09:00.802Z,13.60
2018-05-29T14:10:00.724Z,13.60
2018-05-29T14:11:00.620Z,12.80
2018-05-29T14:12:00.569Z,13.10
2018-05-29T14:13:00.448Z,13.10
2018-05-29T14:14:00.448Z,13.00
2018-05-29T14:15:00.310Z,12.80
2018-05-29T14:16:00.398Z,14.80
2018-05-29T14:17:00.348Z,12.40
2018-05-29T14:18:00.162Z,12.60
2018-05-29T14:19:00.045Z,12.60
2018-05-29T14:20:00.090Z,12.30
2018-05-29T14:20:59.882Z,12.10
2018-05-29T14:21:59.924Z,13.10
2018-05-29T14:22:59.740Z,12.50
2018-05-29T14:23:59.799Z,12.60
2018-05-29T14:24:59.604Z,13.00
2018-05-29T14:25:59.612Z,18.80
2018-05-29T14:26:59.503Z,20.10
2018-05-29T14:27:59.557Z,24.20
2018-05-29T14:28:59.342Z,29.30
2018-05-29T14:29:59.274Z,28.60
2018-05-29T14:30:59.212Z,30.30
2018-05-29T14:31:59.234Z,35.40
2018-05-29T14:32:59.094Z,31.80
2018-05-29T14:35:41.051Z,33.90
2018-05-29T14:36:41.049Z,19.00
2018-05-29T14:37:40.951Z,15.70
2018-05-29T14:38:41.014Z,9.80
2018-05-29T14:39:40.777Z,13.70
2018-05-29T14:40:40.757Z,15.10
2018-05-29T14:41:40.618Z,11.90
2018-05-29T14:42:40.709Z,13.80
2018-05-29T14:43:40.508Z,15.70
2018-05-29T14:44:40.401Z,247.20
2018-05-29T14:45:40.326Z,112.40
2018-05-29T14:46:40.396Z,144.90
2018-05-29T14:47:40.258Z,25.60